Time;durP1;ratioP1;P1;durP2;ratioP2;P2;SDS_P1;SDS_P2;PMS_P1;PMS_P2;Temp;Humidity;BMP_temperature;BMP_pressure;BME280_temperature;BME280_humidity;BME280_pressure;Samples;Min_cycle;Max_cycle;Signal;HPM_P1;HPM_P2
2022/12/21 00:05:25;;;;;;;75.82;24.17;;;;;;;7.68;100.00;100947.25;6183507;22;20028;-94
2022/12/21 00:07:51;;;;;;;78.77;26.03;;;;;;;7.81;100.00;100964.88;6183765;23;20005;-95
2022/12/21 00:10:16;;;;;;;75.22;27.05;;;;;;;7.68;100.00;100949.94;6193466;23;20005;-94
2022/12/21 00:12:42;;;;;;;77.93;26.47;;;;;;;7.68;100.00;100954.47;6155643;23;20009;-95
2022/12/21 00:15:13;;;;;;;87.23;27.10;;;;;;;7.66;100.00;100946.72;6129838;23;20040;-95
2022/12/21 00:17:38;;;;;;;79.43;26.17;;;;;;;7.67;100.00;100942.97;6129692;23;20009;-96
2022/12/21 00:22:31;;;;;;;79.37;24.73;;;;;;;7.65;100.00;100944.25;6197545;22;20021;-94
2022/12/21 00:24:57;;;;;;;80.75;25.35;;;;;;;7.67;100.00;100942.97;6214699;23;20012;-95
2022/12/21 00:31:34;;;;;;;89.05;24.15;;;;;;;7.77;100.00;100961.03;6211550;23;20050;-93
2022/12/21 00:33:59;;;;;;;81.30;25.08;;;;;;;7.68;100.00;100957.13;6184616;23;20071;-94
2022/12/21 00:36:27;;;;;;;86.60;25.40;;;;;;;7.60;100.00;100952.97;6183807;23;20458;-93
2022/12/21 00:38:53;;;;;;;95.82;27.70;;;;;;;7.63;100.00;100965.84;6184687;23;20001;-96
2022/12/21 01:25:31;;;;;;;84.90;26.88;;;;;;;7.54;100.00;100991.25;6171197;22;20472;-94
2022/12/21 01:28:07;;;;;;;;;;;;;;;;;;;;;
2022/12/21 01:30:33;;;;;;;93.22;27.52;;;;;;;7.42;100.00;100968.06;6175183;22;20103;-95
2022/12/21 01:32:58;;;;;;;94.00;26.73;;;;;;;7.43;100.00;100967.03;6182925;23;20032;-95
2022/12/21 01:35:49;;;;;;;;;;;;;;;;;;;;;
2022/12/21 01:38:22;;;;;;;96.55;27.10;;;;;;;7.42;100.00;100981.41;6126977;23;20121;-95
2022/12/21 01:40:47;;;;;;;97.55;27.13;;;;;;;7.48;100.00;100998.31;6156827;23;20117;-94
2022/12/21 01:43:45;;;;;;;108.43;28.10;;;;;;;7.41;100.00;100989.63;6184322;22;20067;-94
2022/12/21 01:46:38;;;;;;;101.88;28.30;;;;;;;7.44;100.00;100997.16;6163208;23;20013;-95
2022/12/21 01:52:25;;;;;;;109.30;28.55;;;;;;;7.45;100.00;100997.97;6192398;23;20027;-95
2022/12/21 02:09:42;;;;;;;89.60;25.08;;;;;;;7.35;100.00;100982.56;6176554;22;20020;-94
2022/12/21 02:12:13;;;;;;;85.63;25.42;;;;;;;7.47;100.00;100998.56;6184070;23;20009;-96
2022/12/21 02:14:41;;;;;;;91.53;25.35;;;;;;;7.38;100.00;100979.44;6175814;23;20013;-95
2022/12/21 02:17:52;;;;;;;95.53;26.27;;;;;;;7.43;100.00;100974.19;6158231;23;20018;-96
2022/12/21 02:28:22;;;;;;;87.50;26.87;;;;;;;7.45;100.00;100987.31;6197080;22;20269;-94
2022/12/21 02:31:22;;;;;;;;;;;;;;;;;;;;;
2022/12/21 02:34:27;;;;;;;91.13;28.00;;;;;;;7.31;100.00;100968.88;6158617;23;20082;-95
2022/12/21 02:37:39;;;;;;;76.57;24.35;;;;;;;7.41;100.00;100984.28;6131220;23;20016;-96
2022/12/21 02:40:50;;;;;;;80.30;24.40;;;;;;;7.42;100.00;101000.06;6159097;23;20016;-96
2022/12/21 02:44:14;;;;;;;81.03;25.48;;;;;;;7.25;100.00;100970.63;6136535;23;20002;-94
2022/12/21 02:47:15;;;;;;;102.07;29.60;;;;;;;7.36;100.00;100986.84;6098030;23;20041;-96
2022/12/21 02:50:09;;;;;;;97.97;28.20;;;;;;;7.34;100.00;100986.28;6150588;23;20267;-96
2022/12/21 02:52:59;;;;;;;98.65;27.45;;;;;;;7.26;100.00;100974.09;6188491;23;20448;-95
2022/12/21 02:56:09;;;;;;;96.63;27.67;;;;;;;7.33;100.00;100982.78;6186995;23;20013;-95
2022/12/21 02:58:46;;;;;;;108.03;27.80;;;;;;;7.34;100.00;100984.41;6161736;23;20009;-96
2022/12/21 03:01:55;;;;;;;93.45;27.52;;;;;;;7.34;100.00;100978.28;6161747;23;20009;-96
2022/12/21 03:10:00;;;;;;;109.70;31.90;;;;;;;7.30;100.00;100979.78;6186142;23;20087;-94
2022/12/21 03:12:50;;;;;;;112.07;30.53;;;;;;;7.22;100.00;100967.59;6185853;23;20039;-94
2022/12/21 03:15:50;;;;;;;116.53;30.73;;;;;;;7.30;100.00;100974.44;6186512;23;20015;-95
2022/12/21 03:18:36;;;;;;;109.38;31.15;;;;;;;7.22;100.00;100957.75;6147647;23;20005;-94
2022/12/21 03:21:34;;;;;;;110.85;29.77;;;;;;;7.30;100.00;100972.59;6196957;23;20065;-96
2022/12/21 03:24:29;;;;;;;103.68;29.50;;;;;;;7.30;100.00;100975.28;6191978;23;20011;-95
2022/12/21 03:27:31;;;;;;;108.60;30.67;;;;;;;7.29;100.00;100973.66;6180609;23;20012;-96
2022/12/21 03:59:31;;;;;;;142.27;34.97;;;;;;;7.13;100.00;100951.94;6185321;23;20072;-93
2022/12/21 04:02:22;;;;;;;140.57;34.97;;;;;;;7.25;100.00;100951.16;6153004;23;20013;-92
2022/12/21 04:05:04;;;;;;;132.03;33.17;;;;;;;7.19;100.00;100950.25;6157388;23;20006;-93
2022/12/21 04:07:32;;;;;;;137.53;32.03;;;;;;;7.23;100.00;100974.56;6157298;23;20251;-94
2022/12/21 04:09:59;;;;;;;137.63;33.85;;;;;;;7.20;100.00;100969.69;6156671;23;20056;-93
2022/12/21 04:12:39;;;;;;;136.15;33.00;;;;;;;7.16;100.00;100953.38;6128750;23;20013;-92
2022/12/21 04:15:14;;;;;;;124.80;30.50;;;;;;;7.19;100.00;100944.09;6128187;23;20462;-93
2022/12/21 04:17:41;;;;;;;124.05;30.42;;;;;;;7.23;100.00;100958.56;6126198;23;20060;-93
2022/12/21 04:20:10;;;;;;;111.40;30.02;;;;;;;7.21;100.00;100960.66;6126691;23;20006;-93
2022/12/21 04:28:31;;;;;;;94.07;25.57;;;;;;;7.16;100.00;100960.53;6123860;23;20245;-95
2022/12/21 04:30:59;;;;;;;88.03;23.88;;;;;;;7.13;100.00;100959.16;6096155;23;20013;-95
2022/12/21 04:33:26;;;;;;;90.95;24.80;;;;;;;7.06;100.00;100959.25;6125679;23;20060;-96
2022/12/21 04:38:43;;;;;;;85.95;23.60;;;;;;;7.02;100.00;100951.97;6120784;23;20074;-96
2022/12/21 04:41:13;;;;;;;86.82;22.42;;;;;;;6.99;100.00;100947.91;6137123;23;20013;-96
2022/12/21 04:43:40;;;;;;;84.47;21.80;;;;;;;6.95;100.00;100946.72;6132543;23;20034;-95
2022/12/21 04:46:14;;;;;;;79.18;22.67;;;;;;;6.87;100.00;100933.75;6102235;23;20486;-96
2022/12/21 04:48:40;;;;;;;75.40;20.40;;;;;;;6.88;100.00;100935.38;6126753;23;20013;-96
2022/12/21 05:14:22;;;;;;;58.13;17.25;;;;;;;6.64;100.00;100922.84;6204467;22;20017;-92
2022/12/21 05:16:48;;;;;;;62.63;16.60;;;;;;;6.76;100.00;100940.69;6207746;23;20337;-96
2022/12/21 05:26:15;;;;;;;54.00;16.13;;;;;;;6.62;100.00;100926.75;6147426;23;20274;-92
2022/12/21 05:28:41;;;;;;;59.05;17.17;;;;;;;6.64;100.00;100938.00;6127414;23;20002;-95
2022/12/21 05:33:37;;;;;;;55.70;16.38;;;;;;;6.56;100.00;100917.84;6231309;23;20467;-95
2022/12/21 05:36:07;;;;;;;55.00;15.23;;;;;;;6.69;100.00;100939.97;6224635;23;20000;-92
2022/12/21 05:38:33;;;;;;;59.13;16.83;;;;;;;6.67;100.00;100935.69;6217781;23;20321;-93
2022/12/21 05:40:58;;;;;;;55.23;16.57;;;;;;;6.68;100.00;100931.19;6203206;23;20009;-94
2022/12/21 05:43:24;;;;;;;53.70;16.80;;;;;;;6.63;100.00;100934.53;6195778;23;19992;-96
2022/12/21 06:16:50;;;;;;;45.63;13.40;;;;;;;6.25;100.00;100895.78;6204884;23;20021;-96
2022/12/21 06:19:16;;;;;;;48.42;13.20;;;;;;;6.31;100.00;100915.34;6208315;23;20012;-96
2022/12/21 06:21:44;;;;;;;42.20;12.67;;;;;;;6.27;100.00;100915.00;6204530;23;19997;-96
2022/12/21 06:24:09;;;;;;;52.08;13.05;;;;;;;6.22;100.00;100906.88;6148568;23;20001;-96
2022/12/21 06:26:35;;;;;;;46.53;13.23;;;;;;;6.21;100.00;100900.72;6199854;23;20037;-93
2022/12/21 06:31:36;;;;;;;38.23;11.43;;;;;;;6.20;100.00;100907.13;6214993;22;20229;-95
2022/12/21 06:34:16;;;;;;;44.07;11.33;;;;;;;6.22;100.00;100917.53;6240103;22;20259;-96
2022/12/21 06:36:42;;;;;;;40.65;10.57;;;;;;;6.12;100.00;100907.44;6240919;23;20012;-96
2022/12/21 06:39:07;;;;;;;32.50;9.97;;;;;;;6.13;100.00;100917.03;6233875;23;20028;-94
2022/12/21 07:19:21;;;;;;;29.08;7.45;;;;;;;6.10;100.00;100953.94;6205076;22;20021;-96
2022/12/21 07:21:47;;;;;;;25.70;7.10;;;;;;;5.96;100.00;100940.75;6207954;23;20001;-96
2022/12/21 07:24:21;;;;;;;29.23;7.20;;;;;;;6.07;100.00;100957.81;6210328;23;20252;-96
2022/12/21 08:26:15;;;;;;;33.78;9.13;;;;;;;6.04;100.00;101011.47;6179742;22;20024;-96
2022/12/21 08:28:41;;;;;;;32.38;8.95;;;;;;;6.08;100.00;101015.31;6188542;23;20693;-96
2022/12/21 08:31:17;;;;;;;28.48;8.85;;;;;;;6.16;100.00;101015.03;6186260;23;20402;-96
2022/12/21 08:33:43;;;;;;;34.67;9.80;;;;;;;6.11;100.00;100993.59;6194043;23;20091;-96
2022/12/21 08:44:43;;;;;;;39.88;10.85;;;;;;;6.21;100.00;100991.22;6188379;22;20017;-96
2022/12/21 08:50:31;;;;;;;47.50;10.93;;;;;;;6.29;100.00;101003.41;6189186;23;20024;-96
2022/12/21 08:52:57;;;;;;;51.60;10.33;;;;;;;6.25;100.00;101001.41;6183176;22;20172;-85
2022/12/21 08:55:22;;;;;;;52.30;11.77;;;;;;;6.17;100.00;100997.22;6152605;23;20449;-85
2022/12/21 08:57:48;;;;;;;53.15;12.93;;;;;;;6.30;100.00;101009.53;6174873;23;20015;-85
2022/12/21 09:00:14;;;;;;;46.57;11.50;;;;;;;6.37;100.00;101015.59;6177110;23;20075;-84
2022/12/21 09:02:39;;;;;;;46.88;12.80;;;;;;;6.37;100.00;101004.97;6178569;23;20001;-85
2022/12/21 09:05:05;;;;;;;55.00;13.67;;;;;;;6.47;100.00;101026.50;6178520;23;20009;-85
2022/12/21 09:07:30;;;;;;;44.20;13.73;;;;;;;6.51;100.00;101019.72;6181081;23;20027;-85
2022/12/21 09:09:56;;;;;;;58.83;14.40;;;;;;;6.55;100.00;101013.94;6180306;23;20075;-85
2022/12/21 09:12:21;;;;;;;46.87;13.80;;;;;;;6.61;100.00;101018.34;6154093;23;20088;-85
2022/12/21 09:14:46;;;;;;;51.70;14.95;;;;;;;6.62;100.00;101009.31;6179821;23;20575;-86
2022/12/21 09:17:12;;;;;;;56.47;16.50;;;;;;;6.63;100.00;101008.28;6180890;23;20005;-85
2022/12/21 09:19:37;;;;;;;50.73;15.70;;;;;;;6.66;100.00;100997.19;6179696;23;20463;-85
2022/12/21 09:22:03;;;;;;;57.60;17.30;;;;;;;6.69;100.00;101002.06;6180569;23;20636;-85
2022/12/21 09:24:29;;;;;;;54.05;16.17;;;;;;;6.73;100.00;101003.22;6180312;23;20023;-85
2022/12/21 09:26:54;;;;;;;59.63;16.67;;;;;;;6.78;100.00;101008.66;6180551;23;20449;-86
2022/12/21 09:29:22;;;;;;;57.87;17.97;;;;;;;6.76;100.00;100989.44;6180455;23;20001;-85
2022/12/21 09:31:47;;;;;;;69.32;18.00;;;;;;;6.78;100.00;100995.34;6179531;23;20001;-85
2022/12/21 09:34:13;;;;;;;63.38;19.15;;;;;;;6.85;100.00;101005.91;6178585;23;20016;-85
2022/12/21 09:36:38;;;;;;;65.13;17.70;;;;;;;6.90;100.00;101005.22;6178735;23;20365;-85
2022/12/21 09:39:03;;;;;;;64.00;17.70;;;;;;;6.86;100.00;101009.38;6179540;23;20005;-85
2022/12/21 09:41:29;;;;;;;63.90;18.77;;;;;;;6.91;100.00;101014.84;6179281;23;20008;-85
2022/12/21 09:44:18;;;;;;;56.17;18.70;;;;;;;6.97;100.00;101011.25;6180886;23;20005;-86
2022/12/21 09:46:46;;;;;;;61.20;17.80;;;;;;;6.92;100.00;101005.81;6182280;23;20016;-85
2022/12/21 09:49:17;;;;;;;54.88;18.20;;;;;;;6.86;100.00;101018.19;6183552;23;20080;-84
2022/12/21 09:51:51;;;;;;;52.25;17.20;;;;;;;6.85;100.00;101015.75;6182892;23;20249;-84
2022/12/21 09:54:20;;;;;;;51.88;17.17;;;;;;;6.93;100.00;101020.75;6182588;23;20008;-85
2022/12/21 09:56:51;;;;;;;59.35;17.30;;;;;;;6.97;100.00;101035.22;6179677;23;20012;-84
2022/12/21 09:59:19;;;;;;;65.20;17.57;;;;;;;6.97;100.00;101028.06;6180978;23;20001;-85
2022/12/21 10:02:14;;;;;;;60.00;19.53;;;;;;;7.04;100.00;101022.63;6153806;23;20331;-85
2022/12/21 10:04:58;;;;;;;57.50;17.63;;;;;;;7.10;100.00;101023.56;6182656;23;20009;-83
2022/12/21 10:07:44;;;;;;;53.63;17.00;;;;;;;7.19;100.00;101032.03;6181869;23;20340;-83
2022/12/21 10:10:23;;;;;;;58.00;17.05;;;;;;;7.22;100.00;101035.03;6182218;23;20346;-83
2022/12/21 10:13:05;;;;;;;45.72;15.73;;;;;;;7.15;100.00;101029.03;6182856;23;20102;-83
2022/12/21 10:15:44;;;;;;;43.83;14.63;;;;;;;7.18;100.00;101033.06;6182840;23;20053;-82
2022/12/21 10:18:16;;;;;;;50.13;14.27;;;;;;;7.22;100.00;101026.25;6182925;23;20715;-83
2022/12/21 10:20:52;;;;;;;42.67;14.30;;;;;;;7.22;100.00;101023.56;6182502;23;19997;-83
2022/12/21 10:23:26;;;;;;;43.38;15.43;;;;;;;7.24;100.00;101032.16;6183036;23;20008;-83
2022/12/21 10:25:57;;;;;;;47.25;14.75;;;;;;;7.27;100.00;101042.38;6182855;23;19997;-83
2022/12/21 10:29:01;;;;;;;47.75;13.88;;;;;;;7.29;100.00;101032.28;6183235;23;20092;-82
2022/12/21 10:31:40;;;;;;;54.75;17.17;;;;;;;7.26;100.00;101030.09;6182559;23;20095;-83
2022/12/21 10:34:23;;;;;;;43.77;13.30;;;;;;;7.30;100.00;101033.91;6181222;23;20009;-82
2022/12/21 10:36:54;;;;;;;42.88;13.98;;;;;;;7.32;100.00;101026.47;6181308;23;20009;-82
2022/12/21 10:39:20;;;;;;;39.55;13.40;;;;;;;7.41;100.00;101025.09;6181198;23;20032;-83
2022/12/21 10:42:14;;;;;;;42.00;13.33;;;;;;;7.42;100.00;101017.91;6180356;23;20012;-82
2022/12/21 10:44:40;;;;;;;37.53;13.27;;;;;;;7.41;100.00;101009.09;6182879;23;20009;-82
2022/12/21 10:47:14;;;;;;;39.95;12.80;;;;;;;7.39;100.00;101008.53;6180013;23;20009;-82
2022/12/21 10:49:41;;;;;;;46.47;14.65;;;;;;;7.42;100.00;101004.56;6181812;23;20005;-83
2022/12/21 10:52:37;;;;;;;40.13;13.13;;;;;;;7.39;100.00;101002.41;6182962;23;20017;-83
2022/12/21 10:55:04;;;;;;;43.90;14.83;;;;;;;7.34;100.00;100989.72;6181462;23;20032;-85
2022/12/21 10:57:33;;;;;;;33.70;12.10;;;;;;;7.33;100.00;100995.31;6182328;23;20274;-85
2022/12/21 11:00:27;;;;;;;40.47;12.82;;;;;;;7.34;100.00;100983.59;6181598;23;20084;-84
2022/12/21 11:02:56;;;;;;;41.10;15.50;;;;;;;7.25;100.00;100967.94;6179266;23;20445;-84
2022/12/21 11:05:42;;;;;;;34.47;12.95;;;;;;;7.32;100.00;100983.03;6183186;23;20005;-84
2022/12/21 11:08:30;;;;;;;32.03;11.95;;;;;;;7.31;100.00;100982.19;6182684;23;20009;-84
2022/12/21 11:11:01;;;;;;;37.38;12.05;;;;;;;7.31;100.00;100989.41;6155730;23;20333;-83
2022/12/21 11:13:29;;;;;;;31.00;11.53;;;;;;;7.33;100.00;100992.66;6182470;23;20001;-83
2022/12/21 11:16:09;;;;;;;31.30;11.90;;;;;;;7.32;100.00;100986.50;6183664;23;20720;-82
2022/12/21 11:18:46;;;;;;;32.65;11.95;;;;;;;7.34;100.00;100971.06;6181667;23;20009;-83
2022/12/21 11:21:28;;;;;;;37.88;13.45;;;;;;;7.38;100.00;100984.78;6156240;23;20016;-84
2022/12/21 11:24:16;;;;;;;33.15;12.60;;;;;;;7.38;100.00;100985.56;6182989;23;19996;-84
2022/12/21 11:26:45;;;;;;;31.13;11.73;;;;;;;7.40;100.00;100985.31;6182520;23;20001;-84
2022/12/21 11:29:26;;;;;;;36.50;12.20;;;;;;;7.40;100.00;100980.00;6182791;23;20317;-84
2022/12/21 11:32:01;;;;;;;30.83;12.53;;;;;;;7.43;100.00;100985.69;6182112;23;20240;-84
2022/12/21 11:34:38;;;;;;;30.30;10.80;;;;;;;7.48;100.00;100993.00;6182577;23;20008;-84
2022/12/21 11:37:44;;;;;;;36.35;13.20;;;;;;;7.54;100.00;100977.91;6156447;23;20001;-83
2022/12/21 11:40:20;;;;;;;31.83;11.07;;;;;;;7.60;100.00;100994.81;6138087;23;20017;-83
2022/12/21 11:42:58;;;;;;;37.45;12.18;;;;;;;7.69;100.00;100993.44;6183086;23;20009;-83
2022/12/21 11:45:30;;;;;;;39.50;13.57;;;;;;;7.75;100.00;100981.84;6181378;23;20012;-83
2022/12/21 11:48:05;;;;;;;34.23;12.07;;;;;;;7.82;100.00;100981.69;6181913;23;20244;-83
2022/12/21 11:50:36;;;;;;;31.25;11.50;;;;;;;7.84;100.00;100979.63;6180300;23;20499;-82
2022/12/21 11:53:13;;;;;;;30.00;11.50;;;;;;;7.87;100.00;100968.44;6181626;23;20012;-86
2022/12/21 11:55:57;;;;;;;33.33;11.30;;;;;;;7.85;100.00;100971.38;6155222;23;20433;-84
2022/12/21 11:58:33;;;;;;;35.20;9.05;;;;;;;7.86;100.00;100958.81;6180451;23;20016;-84
2022/12/21 12:01:04;;;;;;;25.08;9.68;;;;;;;7.91;100.00;100964.25;6182599;23;20019;-85
2022/12/21 12:04:02;;;;;;;30.80;9.30;;;;;;;7.88;100.00;100960.22;6181842;23;20499;-84
2022/12/21 12:06:56;;;;;;;27.43;9.40;;;;;;;7.95;100.00;100965.41;6183022;23;20229;-84
2022/12/21 12:09:49;;;;;;;28.33;9.10;;;;;;;7.87;100.00;100960.44;6181079;23;20005;-84
2022/12/21 12:12:23;;;;;;;24.33;9.30;;;;;;;7.79;100.00;100963.50;6182103;23;20029;-85
2022/12/21 12:15:10;;;;;;;30.20;9.57;;;;;;;7.79;100.00;100963.50;6182080;23;20013;-84
2022/12/21 12:17:51;;;;;;;25.50;9.18;;;;;;;7.82;100.00;100953.16;6182062;23;20363;-84
2022/12/21 12:20:51;;;;;;;32.35;8.65;;;;;;;7.90;100.00;100941.31;6181053;23;20001;-84
2022/12/21 12:23:59;;;;;;;31.60;9.03;;;;;;;7.96;100.00;100951.03;6181953;23;20422;-84
2022/12/21 12:26:34;;;;;;;24.00;9.07;;;;;;;8.00;100.00;100957.53;6182464;23;20240;-84
2022/12/21 12:29:07;;;;;;;33.55;8.93;;;;;;;8.02;100.00;100949.28;6181409;23;20009;-85
2022/12/21 12:31:46;;;;;;;24.83;8.10;;;;;;;8.04;100.00;100941.84;6155293;23;20005;-84
2022/12/21 12:34:30;;;;;;;23.02;8.07;;;;;;;8.04;100.00;100942.63;6156452;23;20005;-84
2022/12/21 12:37:36;;;;;;;19.67;7.50;;;;;;;8.02;100.00;100941.25;6181614;23;20437;-84
2022/12/21 12:40:19;;;;;;;25.83;7.53;;;;;;;7.99;100.00;100939.88;6155312;23;20016;-86
2022/12/21 12:42:55;;;;;;;27.57;7.63;;;;;;;7.87;100.00;100933.75;6182380;23;20005;-85
2022/12/21 12:45:32;;;;;;;26.07;8.80;;;;;;;7.71;100.00;100922.00;6182150;23;20252;-85
2022/12/21 12:48:07;;;;;;;23.63;8.27;;;;;;;7.64;100.00;100921.31;6181595;23;20012;-85
2022/12/21 12:50:41;;;;;;;28.83;8.02;;;;;;;7.62;100.00;100921.56;6180593;23;20009;-85
2022/12/21 12:53:21;;;;;;;25.10;7.88;;;;;;;7.57;100.00;100926.78;6181849;23;20430;-85
2022/12/21 12:56:02;;;;;;;23.15;8.90;;;;;;;7.58;100.00;100923.06;6176696;23;20016;-85
2022/12/21 12:58:39;;;;;;;19.08;7.45;;;;;;;7.60;100.00;100907.63;6171845;23;20084;-85
2022/12/21 13:01:21;;;;;;;23.38;7.45;;;;;;;7.62;100.00;100905.56;6178916;23;20008;-85
2022/12/21 13:04:10;;;;;;;18.07;7.13;;;;;;;7.65;100.00;100912.25;6155286;23;20619;-85
2022/12/21 13:06:35;;;;;;;29.52;8.20;;;;;;;7.66;100.00;100924.56;6181747;23;20349;-86
2022/12/21 13:09:20;;;;;;;19.30;7.75;;;;;;;7.66;100.00;100914.72;6182333;23;19993;-86
2022/12/21 13:12:07;;;;;;;21.10;7.72;;;;;;;7.61;100.00;100916.44;6180050;23;20012;-86
2022/12/21 13:14:40;;;;;;;19.23;7.67;;;;;;;7.52;100.00;100918.66;6181895;23;20016;-87
2022/12/21 13:17:28;;;;;;;16.88;6.88;;;;;;;7.49;100.00;100909.28;6182065;23;20050;-85
2022/12/21 13:19:58;;;;;;;20.42;7.60;;;;;;;7.54;100.00;100897.91;6168304;23;20013;-85
2022/12/21 13:22:29;;;;;;;17.50;6.20;;;;;;;7.51;100.00;100893.88;6181236;23;20012;-86
2022/12/21 13:25:00;;;;;;;15.05;6.70;;;;;;;7.49;100.00;100900.47;6181523;23;20361;-85
2022/12/21 13:27:29;;;;;;;16.77;7.28;;;;;;;7.43;100.00;100897.72;6181104;23;20358;-86
2022/12/21 13:30:21;;;;;;;25.90;6.80;;;;;;;7.42;100.00;100887.25;6180445;23;20009;-86
2022/12/21 13:33:08;;;;;;;20.58;6.60;;;;;;;7.37;100.00;100889.84;6177803;23;20413;-86
2022/12/21 13:35:41;;;;;;;25.67;7.22;;;;;;;7.35;100.00;100886.59;6181863;23;20020;-86
2022/12/21 13:38:18;;;;;;;22.60;8.00;;;;;;;7.36;100.00;100881.00;6182813;23;20092;-86
2022/12/21 13:40:50;;;;;;;20.33;7.30;;;;;;;7.37;100.00;100879.97;6154273;23;20080;-85
2022/12/21 13:43:54;;;;;;;14.18;6.85;;;;;;;7.46;100.00;100883.09;6155473;23;20012;-85
2022/12/21 13:46:21;;;;;;;23.23;7.10;;;;;;;7.48;100.00;100886.31;6182091;23;20001;-86
2022/12/21 13:49:20;;;;;;;23.60;6.60;;;;;;;7.40;100.00;100886.69;6154001;23;20412;-86
2022/12/21 13:51:53;;;;;;;23.90;7.43;;;;;;;7.21;100.00;100880.69;6180509;23;20035;-87
2022/12/21 13:54:34;;;;;;;14.63;5.95;;;;;;;7.06;100.00;100891.81;6181830;23;20025;-85
2022/12/21 13:57:06;;;;;;;16.98;5.72;;;;;;;6.97;100.00;100896.69;6182398;23;20005;-85
2022/12/21 13:59:46;;;;;;;26.90;7.03;;;;;;;6.97;100.00;100892.19;6181586;23;20048;-85
2022/12/21 14:02:38;;;;;;;15.63;5.95;;;;;;;6.96;100.00;100898.56;6181015;23;20016;-85
2022/12/21 14:05:14;;;;;;;16.30;5.60;;;;;;;6.92;100.00;100891.28;6181805;23;20041;-85
2022/12/21 14:07:52;;;;;;;14.32;5.80;;;;;;;6.85;100.00;100896.69;6181200;23;20006;-85
2022/12/21 14:10:22;;;;;;;10.45;5.25;;;;;;;6.78;100.00;100888.81;6180524;23;20009;-85
2022/12/21 14:13:18;;;;;;;14.27;5.55;;;;;;;6.74;100.00;100889.50;6180221;23;20016;-84
2022/12/21 14:16:04;;;;;;;15.55;5.78;;;;;;;6.76;100.00;100890.09;6181181;23;20557;-85
2022/12/21 14:18:33;;;;;;;14.65;5.07;;;;;;;6.79;100.00;100890.44;6181016;23;20048;-85
2022/12/21 14:21:01;;;;;;;11.03;5.83;;;;;;;6.74;100.00;100890.34;6180062;23;20005;-85
2022/12/21 14:23:31;;;;;;;12.83;4.73;;;;;;;6.73;100.00;100891.38;6180723;23;20290;-85
2022/12/21 14:25:57;;;;;;;20.48;6.10;;;;;;;6.73;100.00;100880.72;6181957;23;20005;-84
2022/12/21 14:28:45;;;;;;;15.68;5.82;;;;;;;6.77;100.00;100886.38;6182411;23;20009;-85
2022/12/21 14:31:10;;;;;;;16.38;6.43;;;;;;;6.79;100.00;100890.44;6181111;23;20332;-84
2022/12/21 14:33:47;;;;;;;15.00;5.77;;;;;;;6.82;100.00;100884.66;6182495;23;20025;-84
2022/12/21 14:36:18;;;;;;;14.25;6.32;;;;;;;6.86;100.00;100881.53;6182630;23;20009;-85
2022/12/21 14:39:08;;;;;;;15.40;6.18;;;;;;;6.92;100.00;100869.94;6182847;23;20044;-85
2022/12/21 14:41:41;;;;;;;17.10;6.50;;;;;;;6.94;100.00;100870.50;6181951;23;20016;-85
2022/12/21 14:44:09;;;;;;;15.25;6.47;;;;;;;6.96;100.00;100871.09;6182556;23;20005;-85
2022/12/21 14:46:53;;;;;;;15.80;5.97;;;;;;;6.98;100.00;100866.34;6182009;23;20001;-85
2022/12/21 14:49:36;;;;;;;15.15;6.10;;;;;;;6.94;100.00;100873.16;6182420;23;20008;-85
2022/12/21 14:52:18;;;;;;;15.88;6.82;;;;;;;6.84;100.00;100864.97;6182644;23;20428;-85
2022/12/21 14:55:06;;;;;;;10.63;5.13;;;;;;;6.71;100.00;100861.50;6182205;23;20010;-85
2022/12/21 14:57:58;;;;;;;14.95;6.53;;;;;;;6.54;100.00;100852.56;6182533;23;20067;-85
2022/12/21 15:00:28;;;;;;;20.27;6.53;;;;;;;6.42;100.00;100842.69;6177487;23;20016;-85
2022/12/21 15:03:20;;;;;;;21.48;6.10;;;;;;;6.35;100.00;100844.66;6182846;23;20112;-85
2022/12/21 15:06:02;;;;;;;15.40;6.50;;;;;;;6.31;100.00;100838.16;6182548;23;20012;-84
2022/12/21 15:08:42;;;;;;;21.75;7.90;;;;;;;6.28;100.00;100842.13;6182699;23;20001;-85
2022/12/21 15:11:21;;;;;;;19.20;7.03;;;;;;;6.23;100.00;100834.00;6157645;23;20009;-85
2022/12/21 15:13:56;;;;;;;14.25;7.25;;;;;;;6.21;100.00;100831.53;6182474;23;20012;-85
2022/12/21 15:16:31;;;;;;;18.15;7.07;;;;;;;6.17;100.00;100835.72;6182319;23;20015;-85
2022/12/21 15:19:09;;;;;;;21.67;8.00;;;;;;;6.16;100.00;100826.13;6182445;23;20059;-85
2022/12/21 15:22:21;;;;;;;17.60;7.63;;;;;;;6.16;100.00;100818.13;6181665;23;20109;-85
2022/12/21 15:24:53;;;;;;;21.10;8.50;;;;;;;6.18;100.00;100826.69;6104279;23;20013;-85
2022/12/21 15:27:24;;;;;;;18.63;8.73;;;;;;;6.24;100.00;100822.31;6182803;23;20617;-85
2022/12/21 15:29:53;;;;;;;22.83;8.85;;;;;;;6.30;100.00;100823.25;6181365;23;20088;-85
2022/12/21 15:32:41;;;;;;;19.77;8.00;;;;;;;6.32;100.00;100821.16;6182684;23;20115;-85
2022/12/21 15:35:27;;;;;;;21.38;8.65;;;;;;;6.34;100.00;100821.75;6183774;23;20005;-84
2022/12/21 15:37:53;;;;;;;21.88;8.48;;;;;;;6.33;100.00;100794.31;6182461;23;20001;-85
2022/12/21 15:40:18;;;;;;;19.42;7.75;;;;;;;6.31;100.00;100803.56;6182340;23;20008;-85
2022/12/21 15:42:49;;;;;;;16.13;7.80;;;;;;;6.26;100.00;100796.28;6182421;23;20306;-85
2022/12/21 15:45:26;;;;;;;21.77;8.50;;;;;;;6.28;100.00;100791.56;6182371;23;20001;-85
2022/12/21 15:48:13;;;;;;;21.57;8.13;;;;;;;6.29;100.00;100792.34;6182815;23;20056;-84
2022/12/21 15:50:39;;;;;;;21.60;8.82;;;;;;;6.27;100.00;100786.44;6196909;23;19989;-85
2022/12/21 15:56:54;;;;;;;23.23;8.30;;;;;;;6.18;100.00;100762.00;6165196;22;20127;-90
2022/12/21 16:01:54;;;;;;;20.70;9.48;;;;;;;6.14;100.00;100739.56;6197090;22;20035;-89
2022/12/21 16:04:20;;;;;;;16.03;7.83;;;;;;;6.13;100.00;100737.94;6200766;23;20020;-91
2022/12/21 16:06:53;;;;;;;20.47;7.67;;;;;;;6.19;100.00;100748.50;6203106;23;20236;-91
2022/12/21 16:09:20;;;;;;;18.95;7.57;;;;;;;6.29;100.00;100755.91;6175085;23;20012;-91
2022/12/21 16:11:52;;;;;;;21.40;8.52;;;;;;;6.36;100.00;100758.47;6194107;23;20006;-92
2022/12/21 16:15:05;;;;;;;18.00;7.53;;;;;;;6.27;100.00;100751.84;6173107;23;20393;-90
2022/12/21 16:17:36;;;;;;;22.02;8.77;;;;;;;6.29;100.00;100741.78;6194839;23;20016;-91
2022/12/21 16:20:02;;;;;;;21.45;7.47;;;;;;;6.26;100.00;100737.75;6196536;23;20006;-93
2022/12/21 16:22:34;;;;;;;15.03;7.97;;;;;;;6.26;100.00;100726.28;6176339;23;20016;-92
2022/12/21 16:25:07;;;;;;;17.50;7.25;;;;;;;6.38;100.00;100745.72;6198238;23;20012;-93
2022/12/21 16:27:35;;;;;;;14.85;7.10;;;;;;;6.39;100.00;100742.00;6196635;23;20001;-93
2022/12/21 16:30:11;;;;;;;14.45;6.90;;;;;;;6.56;100.00;100765.28;6172980;23;20019;-92
2022/12/21 16:32:39;;;;;;;20.17;7.05;;;;;;;6.55;100.00;100771.66;6205019;23;20024;-92
2022/12/21 16:35:14;;;;;;;17.13;6.87;;;;;;;6.54;100.00;100770.81;6175380;23;20255;-91
2022/12/21 16:38:11;;;;;;;10.10;7.20;;;;;;;6.54;100.00;100764.72;6204041;23;20005;-93
2022/12/21 16:40:37;;;;;;;13.93;6.43;;;;;;;6.31;100.00;100737.03;6198294;23;20005;-93
2022/12/21 16:43:03;;;;;;;18.38;7.40;;;;;;;6.34;100.00;100736.59;6202104;23;20005;-91
2022/12/21 16:45:35;;;;;;;13.80;6.68;;;;;;;6.49;100.00;100760.88;6200865;23;20012;-91
2022/12/21 16:48:15;;;;;;;19.95;6.70;;;;;;;6.55;100.00;100763.66;6195914;23;20005;-91
2022/12/21 16:51:08;;;;;;;18.07;6.77;;;;;;;6.48;100.00;100753.94;6191740;23;20011;-91
2022/12/21 16:56:59;;;;;;;20.98;8.77;;;;;;;6.29;100.00;100710.69;6171409;23;20013;-89
2022/12/21 16:59:32;;;;;;;21.77;11.55;;;;;;;6.34;100.00;100723.28;6184648;23;20005;-89
2022/12/21 17:02:16;;;;;;;18.88;7.90;;;;;;;6.38;100.00;100715.63;6187713;23;20009;-93
2022/12/21 17:04:49;;;;;;;20.27;8.18;;;;;;;6.27;100.00;100701.28;6185343;23;20005;-93
2022/12/21 17:07:37;;;;;;;18.45;7.65;;;;;;;6.40;100.00;100725.00;6186455;23;20106;-87
2022/12/21 17:10:14;;;;;;;19.57;7.20;;;;;;;6.49;100.00;100738.75;6185087;23;20044;-87